My Meet Scores
Georgia Buza, Aspire Gymnastics Academy - MyMeetScores.com
Top100 | Top Teams | Upcoming Meets | Completed Meets | Latest | Add Scores | Help| Support | Bookmark and Share

Georgia Buza, Aspire Gymnastics Academy
Personal Bests
LevelVault BarsBeamFloorAA
39.6759.750 9.5759.40037.925
49.0509.350 9.6009.50037.125
59.4509.500 9.7509.50037.825
79.3009.500 9.3759.52537.375
Scores on America's Top 100as of 05.20.2019
Year Level Vault Bars Beam Floor AA
2017 59.750

Click here to view our
exclusive Top 100 Collection
Meet Scores
Date Meet Team Session Level Division Vault Bars Beam Floor AA
2019-02-22 Great Western Invitational - Women's Aspire Gymnastics Academy 11 7 Filly 9.100 5 9.425 5 9.375 9 9.475 4T 37.375 5T
2019-02-15 Big ClassicBIG CLASSIC Aspire Gymnastics Academy 2B 7 Junior A 9.150 9 9.175 5T 8.650 13 9.300 9 36.275 10
2019-02-08 Arizona Sunrays Classic Rock Invitational Aspire Gymnastics Academy B04 7 Jr A 9.150 2T 9.000 12 9.025 8 9.100 9 36.275 10
2019-01-25 UGA Invitational Aspire Gymnastics Academy A03 7 Jr A 8.700 10T 9.500 2T 7.150 14 9.250 9 34.600 12
2019-01-18 2019 Bravo Classic Aspire Gymnastics Academy 10A 7 Child 9.000 5T 9.475 6 8.950 12T 9.150 16 36.575 9
2018-12-14 2018 Aspire Classic Aspire Gymnastics Academy 10B 7 Younger 8.600 14 9.450 3 9.150 12T 9.400 7 36.600 7
2018-11-17 Paul Hamm Thanksgiving Class WOMENS Aspire Gymnastics Academy 7 7 Older 9.300 1 9.275 3 9.050 7 9.525 2 37.150 2T
2018-03-08 Level 4 & 5 State Aspire Gymnastics Academy All 5 Ch C 9.450 2 9.275 2 9.425 4 8.600 20T 36.750 4
2018-02-16 Big Classic Aspire Gymnastics Academy 4A 5 Child B 9.000 6 9.425 4 8.800 6 9.100 9 36.325 3
2018-01-26 2018 UGA Classic Aspire Gymnastics Academy B8 5 Child 9.275 3T 9.125 1 9.250 4 9.100 7 36.750 3
2018-01-19 2018 Bravo Classic Aspire Gymnastics Academy 3B 5 Child 9.450 4T 9.275 5 9.025 11T 9.000 10T 36.750 7
2017-12-15 2017 Aspire Classic Aspire Gymnastics Academy 6A 5 Younger 9.150 4 9.500 1T 9.400 1T 9.500 4T 37.550 1
2017-12-08 St. Nick Invite Aspire Gymnastics Academy 4 5 JrA 9.050 8T 9.125 5 9.750 2 8.775 16T 36.700 6
2017-11-16 Paul Hamm Thanksgiving Classic - Women Aspire Gymnastics Academy 8 5 Younger 9.450 3T 9.500 3 9.500 2T 9.375 2 37.825 1
2017-03-10 2017 Illinois Level 4 State Championships Aspire Gymnastics Academy 2 4 Ch F 9.000 9 9.025 11 9.350 7* 9.200 4 36.575 4T
2017-02-24 Kinetic Classic Aspire Gymnastics Academy 5,6 4 All Ages 9.050 27T 9.200 36T 9.225 43T 9.375 13T 36.850 17
2017-02-18 2017 Great Western Invitational Women's Aspire Gymnastics Academy 5 4 Filly 8.700 6 9.250 7T 9.050 12 9.100 6 36.100 8
2017-01-27 2017 UGA Invitational Aspire Gymnastics Academy C12 4 Child 8.600 4 9.175 3T 9.250 8 9.325 2 36.350 2
2017-01-20 2017 Bravo Classic Aspire Gymnastics Academy 05B 4 9yrs 7.900 18T 9.000 9T 9.325 2 9.000 5T 35.225 6
2016-12-16 2016 Aspire Classic Aspire Gymnastics Academy 7 4 Younger 8.825 5T 9.200 5 9.575 3T 9.100 6T 36.700 4
2016-12-09 St. Nick Invite Aspire Gymnastics Academy 6 4 Junior 8.675 8 9.350 4 9.600 1T 9.500 1T 37.125 1
2016-11-19 Paul Hamm Thanksgiving Classic - 2016 Girls Aspire Gymnastics Academy 7 4 9 yrs 8.600 6T 8.800 15 9.075 18T 8.950 13T 35.425 10
2016-03-04 2016 Illinois Level 3 State Championships Aspire Gymnastics Academy 3 Youth-B 9.675 2 9.650 1 8.525 12 9.025 11 36.875 5
2016-02-13 Western Invite Aspire Gymnastics Academy 2 3 Pony 9.500 5 9.250 6T 9.150 6 9.400 6 37.300 4
2016-01-15 2016 Bravo Classic Aspire Gymnastics Academy 15A 3 8yrs 9.475 4T 9.325 8T 8.650 13 9.250 6T 36.700 7
2015-12-18 2015 Aspire Classic Aspire Gymnastics Academy 10 3 Younger 9.300 11 9.750 1 9.575 2T 9.300 5T 37.925 2
2015-12-11 St. Nick Invite Aspire Gymnastics Academy 1B 3 All 9.525 1T 9.725 1T 8.875 17 8.600 24T 36.725 10T
2015-12-11 St. Nick Invite Aspire Gymnastics Academy 6A 3 All 0.000 53* 0.000 53* 0.000 53* 0.000 53* 0.000 53*
2015-03-12 2015 Illinois Level 3 State Championship Aspire Gymnastics Academy All 3 Child-B 9.300 13 8.800 14 8.675 17 8.550 24 35.325 16
2015-02-14 2015 Great Western Invitational Aspire Gymnastics Academy 7 3 Filly 9.250 6 9.250 2 8.650 6 8.700 13 35.850 7
Click here to view our personalized
"Celebrate Your Season"
2018-19 Collection

www.lazysuits.com